FIN925 EFHK-EDDM
Flight info
| Callsign | FIN925 |
|---|---|
| Flight time | N/A |
| Altitude | 40000 |
| Route | VALOX Y117 ROSAX DCT ANFEV DCT PENOR DCT SUBIX DCT MAREM DCT BALTU DCT VESUB T106 TUSTO T108 LANDU LANDU2B |
| Aircraft | A359/H-SDE2E3GHIJ3J4J5LM1ORWXY/LB1D1 |
Departure
| Time | 2026-04-20 15:51 |
|---|---|
| Airport | Helsinki Vantaa Airport (EFHK) |
Arrival
| Time | N/A |
|---|---|
| Airport | Munich Airport (EDDM) |
| Time | Latitude | Longitude | Altitude | Speed | Heading |
|---|---|---|---|---|---|
| 2026-04-20 15:34 | 60.31423 | 24.95497 | 166 ft | 0 kts | 137° |
| 2026-04-20 15:43 | 60.31432 | 24.95480 | 166 ft | 3 kts | 137° |
| 2026-04-20 15:43 | 60.31447 | 24.95452 | 166 ft | 3 kts | 137° |
| 2026-04-20 15:44 | 60.31463 | 24.95432 | 166 ft | 2 kts | 168° |
| 2026-04-20 15:44 | 60.31479 | 24.95432 | 165 ft | 2 kts | 198° |
| 2026-04-20 15:44 | 60.31493 | 24.95447 | 165 ft | 2 kts | 219° |
| 2026-04-20 15:44 | 60.31504 | 24.95468 | 166 ft | 0 kts | 228° |
| 2026-04-20 15:46 | 60.31499 | 24.95457 | 166 ft | 3 kts | 228° |
| 2026-04-20 15:47 | 60.31467 | 24.95385 | 165 ft | 10 kts | 228° |
| 2026-04-20 15:47 | 60.31411 | 24.95263 | 164 ft | 14 kts | 227° |
| 2026-04-20 15:47 | 60.31391 | 24.95119 | 163 ft | 12 kts | 290° |
| 2026-04-20 15:47 | 60.31438 | 24.94984 | 162 ft | 10 kts | 297° |
| 2026-04-20 15:48 | 60.31421 | 24.94845 | 161 ft | 12 kts | 232° |
| 2026-04-20 15:48 | 60.31350 | 24.94686 | 160 ft | 17 kts | 227° |
| 2026-04-20 15:48 | 60.31270 | 24.94508 | 159 ft | 14 kts | 227° |
| 2026-04-20 15:48 | 60.31195 | 24.94344 | 158 ft | 18 kts | 227° |
| 2026-04-20 15:49 | 60.31105 | 24.94145 | 157 ft | 19 kts | 227° |
| 2026-04-20 15:49 | 60.31043 | 24.93989 | 156 ft | 15 kts | 245° |
| 2026-04-20 15:49 | 60.31046 | 24.93839 | 155 ft | 10 kts | 297° |
| 2026-04-20 15:49 | 60.31100 | 24.93723 | 153 ft | 13 kts | 322° |
| 2026-04-20 15:50 | 60.31134 | 24.93693 | 152 ft | 5 kts | 350° |
| 2026-04-20 15:50 | 60.31164 | 24.93716 | 153 ft | 5 kts | 35° |
| 2026-04-20 15:50 | 60.31190 | 24.93769 | 154 ft | 6 kts | 47° |
| 2026-04-20 15:50 | 60.31348 | 24.94114 | 158 ft | 70 kts | 47° |
| 2026-04-20 15:51 | 60.31840 | 24.95198 | 165 ft | 137 kts | 47° |
| 2026-04-20 15:51 | 60.32556 | 24.96720 | 709 ft | 147 kts | 44° |
| 2026-04-20 15:51 | 60.33231 | 24.98228 | 1509 ft | 147 kts | 46° |
| 2026-04-20 15:51 | 60.33941 | 24.99874 | 1896 ft | 166 kts | 46° |
| 2026-04-20 15:52 | 60.34765 | 25.01741 | 2233 ft | 188 kts | 46° |
| 2026-04-20 15:52 | 60.35699 | 25.03794 | 2645 ft | 208 kts | 45° |
| 2026-04-20 15:52 | 60.36723 | 25.06065 | 3017 ft | 229 kts | 46° |
| 2026-04-20 15:53 | 60.38854 | 25.11205 | 4366 ft | 245 kts | 59° |
| 2026-04-20 15:53 | 60.39191 | 25.14581 | 5157 ft | 253 kts | 93° |
| 2026-04-20 15:53 | 60.38658 | 25.18004 | 5979 ft | 258 kts | 110° |
| 2026-04-20 15:53 | 60.37884 | 25.21294 | 6799 ft | 260 kts | 112° |
| 2026-04-20 15:54 | 60.37088 | 25.24580 | 7559 ft | 262 kts | 112° |
| 2026-04-20 15:54 | 60.36290 | 25.27915 | 8293 ft | 265 kts | 111° |
| 2026-04-20 15:54 | 60.35489 | 25.31280 | 9043 ft | 268 kts | 111° |
| 2026-04-20 15:54 | 60.34481 | 25.34503 | 9797 ft | 276 kts | 127° |
| 2026-04-20 15:55 | 60.32920 | 25.36862 | 10492 ft | 290 kts | 150° |
| 2026-04-20 15:55 | 60.30913 | 25.37806 | 10844 ft | 314 kts | 173° |
| 2026-04-20 15:55 | 60.28664 | 25.37850 | 11138 ft | 332 kts | 177° |
| 2026-04-20 15:55 | 60.26298 | 25.37408 | 11483 ft | 349 kts | 188° |
| 2026-04-20 15:56 | 60.23961 | 25.35847 | 12034 ft | 359 kts | 204° |
| 2026-04-20 15:56 | 60.21868 | 25.33043 | 12628 ft | 367 kts | 220° |
| 2026-04-20 15:56 | 60.20130 | 25.29236 | 13212 ft | 371 kts | 231° |
| 2026-04-20 15:56 | 60.18522 | 25.25141 | 13827 ft | 376 kts | 232° |
| 2026-04-20 15:57 | 60.16896 | 25.20975 | 14388 ft | 380 kts | 231° |
| 2026-04-20 15:57 | 60.15248 | 25.16796 | 14921 ft | 384 kts | 231° |
| 2026-04-20 15:57 | 60.13573 | 25.12583 | 15472 ft | 388 kts | 231° |
| 2026-04-20 15:57 | 60.11879 | 25.08343 | 16017 ft | 392 kts | 230° |
| 2026-04-20 15:58 | 60.10158 | 25.04054 | 16559 ft | 396 kts | 230° |
| 2026-04-20 15:58 | 60.08425 | 24.99746 | 17113 ft | 399 kts | 230° |
| 2026-04-20 15:58 | 60.06672 | 24.95401 | 17657 ft | 403 kts | 230° |
| 2026-04-20 15:58 | 60.04901 | 24.91019 | 18198 ft | 406 kts | 230° |
| 2026-04-20 15:59 | 60.03115 | 24.86610 | 18700 ft | 410 kts | 230° |
| 2026-04-20 15:59 | 60.01307 | 24.82154 | 19166 ft | 414 kts | 230° |
| 2026-04-20 15:59 | 59.99487 | 24.77678 | 19600 ft | 417 kts | 229° |
| 2026-04-20 15:59 | 59.97644 | 24.73155 | 20049 ft | 421 kts | 229° |
| 2026-04-20 16:00 | 59.95786 | 24.68603 | 20489 ft | 424 kts | 229° |
| 2026-04-20 16:00 | 59.93939 | 24.64087 | 20916 ft | 428 kts | 229° |
| 2026-04-20 16:00 | 59.92050 | 24.59479 | 21349 ft | 431 kts | 229° |
| 2026-04-20 16:00 | 59.90150 | 24.54851 | 21880 ft | 432 kts | 229° |
| 2026-04-20 16:01 | 59.88242 | 24.50213 | 22344 ft | 435 kts | 229° |
| 2026-04-20 16:01 | 59.86316 | 24.45543 | 22767 ft | 438 kts | 229° |
| 2026-04-20 16:01 | 59.84375 | 24.40844 | 23195 ft | 441 kts | 229° |
| 2026-04-20 16:01 | 59.82419 | 24.36119 | 23618 ft | 444 kts | 229° |
| 2026-04-20 16:02 | 59.80448 | 24.31368 | 24033 ft | 446 kts | 229° |
| 2026-04-20 16:02 | 59.78461 | 24.26586 | 24387 ft | 450 kts | 229° |
| 2026-04-20 16:02 | 59.76462 | 24.21789 | 24740 ft | 453 kts | 229° |
| 2026-04-20 16:02 | 59.74436 | 24.16975 | 25095 ft | 455 kts | 227° |
| 2026-04-20 16:03 | 59.72182 | 24.12578 | 25454 ft | 455 kts | 217° |
| 2026-04-20 16:03 | 59.69701 | 24.08678 | 25863 ft | 456 kts | 213° |
| 2026-04-20 16:03 | 59.67138 | 24.04987 | 26324 ft | 456 kts | 212° |
| 2026-04-20 16:03 | 59.64527 | 24.01375 | 26750 ft | 459 kts | 211° |
| 2026-04-20 16:04 | 59.61893 | 23.97772 | 27144 ft | 462 kts | 211° |
| 2026-04-20 16:04 | 59.59241 | 23.94135 | 27576 ft | 466 kts | 211° |
| 2026-04-20 16:04 | 59.56577 | 23.90445 | 28001 ft | 469 kts | 211° |
| 2026-04-20 16:04 | 59.53938 | 23.86771 | 28443 ft | 472 kts | 211° |
| 2026-04-20 16:05 | 59.51240 | 23.83004 | 28883 ft | 476 kts | 211° |
| 2026-04-20 16:05 | 59.48564 | 23.79135 | 29302 ft | 481 kts | 216° |
| 2026-04-20 16:05 | 59.46075 | 23.74657 | 29734 ft | 487 kts | 221° |
| 2026-04-20 16:05 | 59.43670 | 23.69938 | 30158 ft | 491 kts | 222° |
| 2026-04-20 16:06 | 59.41282 | 23.65097 | 30554 ft | 495 kts | 223° |
| 2026-04-20 16:06 | 59.38899 | 23.60195 | 30945 ft | 497 kts | 223° |
| 2026-04-20 16:06 | 59.36510 | 23.55270 | 31353 ft | 499 kts | 224° |
| 2026-04-20 16:06 | 59.34107 | 23.50332 | 31744 ft | 502 kts | 223° |
| 2026-04-20 16:07 | 59.31691 | 23.45392 | 32133 ft | 504 kts | 223° |
| 2026-04-20 16:07 | 59.29254 | 23.40438 | 32514 ft | 506 kts | 223° |
| 2026-04-20 16:07 | 59.26803 | 23.35477 | 32882 ft | 508 kts | 223° |
| 2026-04-20 16:07 | 59.24326 | 23.30480 | 33257 ft | 510 kts | 223° |
| 2026-04-20 16:08 | 59.21852 | 23.25503 | 33675 ft | 511 kts | 223° |
| 2026-04-20 16:08 | 59.19363 | 23.20509 | 34034 ft | 513 kts | 223° |
| 2026-04-20 16:08 | 59.16867 | 23.15510 | 34337 ft | 516 kts | 223° |
| 2026-04-20 16:08 | 59.14390 | 23.10560 | 34604 ft | 518 kts | 223° |
| 2026-04-20 16:09 | 59.11869 | 23.05532 | 34876 ft | 520 kts | 224° |
| 2026-04-20 16:09 | 59.09338 | 23.00493 | 35232 ft | 519 kts | 224° |
| 2026-04-20 16:09 | 59.06819 | 22.95489 | 35653 ft | 518 kts | 224° |
| 2026-04-20 16:09 | 59.04301 | 22.90500 | 36046 ft | 516 kts | 224° |
| 2026-04-20 16:10 | 59.01785 | 22.85525 | 36397 ft | 515 kts | 224° |
| 2026-04-20 16:10 | 58.99274 | 22.80571 | 36798 ft | 514 kts | 224° |
| 2026-04-20 16:10 | 58.96764 | 22.75632 | 37139 ft | 514 kts | 224° |
| 2026-04-20 16:10 | 58.94248 | 22.70692 | 37439 ft | 514 kts | 224° |
| 2026-04-20 16:11 | 58.91736 | 22.65772 | 37751 ft | 514 kts | 224° |
| 2026-04-20 16:11 | 58.89221 | 22.60855 | 38071 ft | 514 kts | 224° |
| 2026-04-20 16:11 | 58.86703 | 22.55944 | 38383 ft | 513 kts | 224° |
| 2026-04-20 16:11 | 58.84190 | 22.51053 | 38692 ft | 513 kts | 224° |
| 2026-04-20 16:12 | 58.81676 | 22.46171 | 38985 ft | 513 kts | 224° |
| 2026-04-20 16:12 | 58.79153 | 22.41281 | 39206 ft | 513 kts | 224° |
| 2026-04-20 16:12 | 58.76641 | 22.36424 | 39434 ft | 512 kts | 224° |
| 2026-04-20 16:12 | 58.74124 | 22.31566 | 39627 ft | 512 kts | 224° |
| 2026-04-20 16:13 | 58.71639 | 22.26782 | 39811 ft | 512 kts | 224° |
| 2026-04-20 16:13 | 58.69118 | 22.21939 | 39993 ft | 512 kts | 224° |
| 2026-04-20 16:13 | 58.66593 | 22.17100 | 40164 ft | 512 kts | 224° |
| 2026-04-20 16:13 | 58.64066 | 22.12264 | 40306 ft | 513 kts | 224° |
| 2026-04-20 16:14 | 58.59001 | 22.02607 | 40321 ft | 514 kts | 224° |
| 2026-04-20 16:14 | 58.53925 | 21.92970 | 40327 ft | 513 kts | 224° |
| 2026-04-20 16:15 | 58.48842 | 21.83362 | 40319 ft | 513 kts | 224° |
| 2026-04-20 16:15 | 58.43751 | 21.73780 | 40315 ft | 513 kts | 224° |
| 2026-04-20 16:16 | 58.38651 | 21.64222 | 40311 ft | 513 kts | 224° |
| 2026-04-20 16:16 | 58.33550 | 21.54703 | 40315 ft | 513 kts | 224° |
| 2026-04-20 16:17 | 58.28449 | 21.45225 | 40317 ft | 512 kts | 223° |
| 2026-04-20 16:17 | 58.23342 | 21.35776 | 40316 ft | 512 kts | 223° |
| 2026-04-20 16:18 | 58.18233 | 21.26364 | 40316 ft | 512 kts | 223° |
| 2026-04-20 16:18 | 58.13110 | 21.16965 | 40311 ft | 512 kts | 223° |
| 2026-04-20 16:19 | 58.08018 | 21.07661 | 40312 ft | 512 kts | 223° |
| 2026-04-20 16:19 | 58.02890 | 20.98331 | 40319 ft | 511 kts | 223° |
| 2026-04-20 16:20 | 57.97758 | 20.89034 | 40313 ft | 511 kts | 223° |
| 2026-04-20 16:20 | 57.92614 | 20.79754 | 40313 ft | 511 kts | 223° |
| 2026-04-20 16:21 | 57.87468 | 20.70509 | 40314 ft | 511 kts | 223° |
| 2026-04-20 16:21 | 57.82329 | 20.61313 | 40312 ft | 511 kts | 223° |
| 2026-04-20 16:22 | 57.77177 | 20.52134 | 40318 ft | 510 kts | 223° |
| 2026-04-20 16:22 | 57.72053 | 20.43041 | 40316 ft | 510 kts | 223° |
| 2026-04-20 16:23 | 57.66884 | 20.33907 | 40301 ft | 510 kts | 223° |
| 2026-04-20 16:23 | 57.61725 | 20.24828 | 40307 ft | 509 kts | 223° |
| 2026-04-20 16:24 | 57.56563 | 20.15781 | 40308 ft | 509 kts | 223° |
| 2026-04-20 16:24 | 57.51396 | 20.06762 | 40315 ft | 509 kts | 223° |
| 2026-04-20 16:25 | 57.46225 | 19.97772 | 40315 ft | 509 kts | 223° |
| 2026-04-20 16:25 | 57.41080 | 19.88865 | 40317 ft | 508 kts | 223° |
| 2026-04-20 16:26 | 57.35903 | 19.79937 | 40313 ft | 508 kts | 223° |
| 2026-04-20 16:26 | 57.30724 | 19.71042 | 40316 ft | 508 kts | 223° |
| 2026-04-20 16:27 | 57.25534 | 19.62163 | 40316 ft | 508 kts | 222° |
| 2026-04-20 16:27 | 57.20342 | 19.53318 | 40316 ft | 508 kts | 222° |
| 2026-04-20 16:28 | 57.16018 | 19.45979 | 40313 ft | 508 kts | 222° |
| 2026-04-20 16:28 | 57.10815 | 19.37179 | 40316 ft | 508 kts | 222° |
| 2026-04-20 16:29 | 57.05607 | 19.28405 | 40307 ft | 508 kts | 222° |
| 2026-04-20 16:29 | 57.00385 | 19.19644 | 40307 ft | 508 kts | 222° |
| 2026-04-20 16:30 | 56.95160 | 19.10911 | 40311 ft | 509 kts | 222° |
| 2026-04-20 16:30 | 56.89921 | 19.02191 | 40309 ft | 509 kts | 222° |
| 2026-04-20 16:31 | 56.84680 | 18.93501 | 40310 ft | 509 kts | 222° |
| 2026-04-20 16:31 | 56.79431 | 18.84833 | 40303 ft | 509 kts | 222° |
| 2026-04-20 16:32 | 56.74171 | 18.76180 | 40307 ft | 509 kts | 222° |
| 2026-04-20 16:32 | 56.68910 | 18.67561 | 40304 ft | 509 kts | 221° |
| 2026-04-20 16:33 | 56.63671 | 18.59009 | 40300 ft | 509 kts | 221° |
| 2026-04-20 16:33 | 56.58399 | 18.50439 | 40302 ft | 509 kts | 221° |
| 2026-04-20 16:34 | 56.53119 | 18.41888 | 40301 ft | 509 kts | 221° |
| 2026-04-20 16:34 | 56.47832 | 18.33361 | 40302 ft | 509 kts | 221° |
| 2026-04-20 16:35 | 56.42542 | 18.24860 | 40303 ft | 508 kts | 221° |
| 2026-04-20 16:35 | 56.37244 | 18.16380 | 40293 ft | 508 kts | 221° |
| 2026-04-20 16:36 | 56.31943 | 18.07927 | 40297 ft | 508 kts | 221° |
| 2026-04-20 16:36 | 56.26678 | 17.99565 | 40292 ft | 507 kts | 221° |
| 2026-04-20 16:37 | 56.21383 | 17.91186 | 40293 ft | 506 kts | 221° |
| 2026-04-20 16:37 | 56.16089 | 17.82843 | 40297 ft | 507 kts | 221° |
| 2026-04-20 16:38 | 56.10785 | 17.74514 | 40300 ft | 506 kts | 221° |
| 2026-04-20 16:38 | 56.05476 | 17.66209 | 40294 ft | 506 kts | 221° |
| 2026-04-20 16:39 | 56.00172 | 17.57944 | 40289 ft | 506 kts | 221° |
| 2026-04-20 16:39 | 55.94862 | 17.49701 | 40290 ft | 506 kts | 221° |
| 2026-04-20 16:40 | 55.89545 | 17.41477 | 40291 ft | 506 kts | 221° |
| 2026-04-20 16:40 | 55.84222 | 17.33276 | 40292 ft | 505 kts | 221° |
| 2026-04-20 16:41 | 55.78671 | 17.25600 | 40290 ft | 506 kts | 210° |
| 2026-04-20 16:41 | 55.72225 | 17.20685 | 40285 ft | 505 kts | 198° |
| 2026-04-20 16:42 | 55.65575 | 17.16885 | 40276 ft | 505 kts | 198° |
| 2026-04-20 16:42 | 55.59096 | 17.12016 | 40284 ft | 506 kts | 205° |
| 2026-04-20 16:43 | 55.52734 | 17.06654 | 40277 ft | 506 kts | 206° |
| 2026-04-20 16:43 | 55.46414 | 17.01154 | 40276 ft | 506 kts | 208° |
| 2026-04-20 16:44 | 55.40759 | 16.93841 | 40274 ft | 505 kts | 226° |
| 2026-04-20 16:44 | 55.38519 | 16.89096 | 40275 ft | 503 kts | 237° |
| 2026-04-20 16:44 | 55.36803 | 16.83773 | 40275 ft | 500 kts | 248° |
| 2026-04-20 16:45 | 55.34764 | 16.72196 | 40272 ft | 498 kts | 261° |
| 2026-04-20 16:45 | 55.34428 | 16.60132 | 40281 ft | 494 kts | 276° |
| 2026-04-20 16:46 | 55.34943 | 16.48080 | 40273 ft | 494 kts | 277° |
| 2026-04-20 16:46 | 55.35520 | 16.36011 | 40282 ft | 495 kts | 277° |
| 2026-04-20 16:47 | 55.36114 | 16.23970 | 40280 ft | 494 kts | 277° |
| 2026-04-20 16:47 | 55.36707 | 16.11931 | 40279 ft | 495 kts | 277° |
| 2026-04-20 16:48 | 55.37291 | 15.99876 | 40067 ft | 495 kts | 276° |
| 2026-04-20 16:48 | 55.37576 | 15.93908 | 39834 ft | 496 kts | 277° |
| 2026-04-20 16:48 | 55.37859 | 15.87906 | 39441 ft | 491 kts | 277° |
| 2026-04-20 16:49 | 55.38139 | 15.81915 | 38778 ft | 492 kts | 276° |
| 2026-04-20 16:49 | 55.38417 | 15.75914 | 38009 ft | 492 kts | 276° |
| 2026-04-20 16:49 | 55.38692 | 15.69915 | 37320 ft | 492 kts | 276° |
| 2026-04-20 16:49 | 55.38964 | 15.63918 | 36609 ft | 492 kts | 276° |
| 2026-04-20 16:50 | 55.39233 | 15.57909 | 35900 ft | 493 kts | 276° |
| 2026-04-20 16:50 | 55.39500 | 15.51895 | 35142 ft | 494 kts | 276° |
| 2026-04-20 16:50 | 55.39766 | 15.45841 | 34328 ft | 498 kts | 276° |
| 2026-04-20 16:50 | 55.40028 | 15.39782 | 33688 ft | 494 kts | 276° |
| 2026-04-20 16:51 | 55.40284 | 15.33772 | 33100 ft | 489 kts | 276° |
| 2026-04-20 16:51 | 55.40535 | 15.27829 | 32539 ft | 485 kts | 276° |
| 2026-04-20 16:51 | 55.40782 | 15.21920 | 31967 ft | 481 kts | 276° |
| 2026-04-20 16:51 | 55.41023 | 15.16066 | 31418 ft | 477 kts | 276° |
| 2026-04-20 16:52 | 55.41261 | 15.10262 | 30836 ft | 474 kts | 277° |
| 2026-04-20 16:52 | 55.41493 | 15.04499 | 30287 ft | 470 kts | 277° |
| 2026-04-20 16:52 | 55.41722 | 14.98778 | 29687 ft | 466 kts | 277° |
| 2026-04-20 16:52 | 55.41944 | 14.93130 | 29153 ft | 461 kts | 277° |
| 2026-04-20 16:53 | 55.42160 | 14.87603 | 28600 ft | 456 kts | 276° |
| 2026-04-20 16:53 | 55.42373 | 14.82061 | 28086 ft | 451 kts | 276° |
| 2026-04-20 16:53 | 55.42582 | 14.76572 | 27566 ft | 447 kts | 276° |
| 2026-04-20 16:53 | 55.42787 | 14.71137 | 27039 ft | 443 kts | 276° |
| 2026-04-20 16:54 | 55.42987 | 14.65755 | 26519 ft | 439 kts | 276° |
| 2026-04-20 16:54 | 55.43184 | 14.60408 | 26004 ft | 436 kts | 276° |
| 2026-04-20 16:54 | 55.43378 | 14.55086 | 25477 ft | 433 kts | 276° |
| 2026-04-20 16:54 | 55.43567 | 14.49813 | 24962 ft | 430 kts | 276° |
| 2026-04-20 16:55 | 55.43753 | 14.44570 | 24450 ft | 427 kts | 276° |